Time;durP1;ratioP1;P1;durP2;ratioP2;P2;SDS_P1;SDS_P2;PMS_P1;PMS_P2;Temp;Humidity;BMP_temperature;BMP_pressure;BME280_temperature;BME280_humidity;BME280_pressure;Samples;Min_cycle;Max_cycle;Signal;HPM_P1;HPM_P2
2021/08/29 00:01:45;;;;;;;13.50;8.70;;;;;;;14.03;80.39;96844.30;116235;1178;70560;-65
2021/08/29 00:04:16;;;;;;;8.30;5.30;;;;;;;14.01;80.57;96837.16;116206;1181;68732;-67
2021/08/29 00:06:47;;;;;;;7.60;6.60;;;;;;;13.99;80.89;96821.73;116208;1181;68296;-66
2021/08/29 00:09:16;;;;;;;;;;;;;;;13.94;82.03;96808.56;116143;1182;59543;-64
2021/08/29 00:11:47;;;;;;;6.50;5.30;;;;;;;13.92;82.20;96796.84;116182;1179;59620;-67
2021/08/29 00:14:16;;;;;;;9.10;6.60;;;;;;;13.91;82.45;96799.90;116187;1181;71189;-66
2021/08/29 00:16:46;;;;;;;6.30;4.30;;;;;;;13.90;82.28;96799.17;116121;1182;68467;-66
2021/08/29 00:19:17;;;;;;;8.00;5.50;;;;;;;13.91;80.26;96797.12;116067;1183;69044;-66
2021/08/29 00:21:47;;;;;;;;;;;;;;;13.90;81.64;96797.38;116097;1181;59558;-68
2021/08/29 00:24:17;;;;;;;6.80;4.10;;;;;;;13.89;80.83;96795.42;116046;1182;59503;-66
2021/08/29 00:26:47;;;;;;;;;;;;;;;13.89;80.15;96788.70;116122;1180;71335;-65
2021/08/29 00:29:17;;;;;;;11.00;8.00;;;;;;;13.76;84.25;96789.08;116344;1181;69261;-66
2021/08/29 00:31:48;;;;;;;13.50;8.90;;;;;;;13.59;85.36;96781.81;116041;1179;68626;-65
2021/08/29 00:34:18;;;;;;;13.60;8.70;;;;;;;13.52;85.71;96772.44;116130;1181;59568;-65
2021/08/29 00:36:48;;;;;;;7.20;6.20;;;;;;;13.48;85.84;96774.45;116199;1179;59512;-65
2021/08/29 00:39:19;;;;;;;12.00;7.60;;;;;;;13.43;86.33;96770.15;116038;1182;70637;-65
2021/08/29 00:41:48;;;;;;;;;;;;;;;13.36;87.03;96769.08;116175;1184;69286;-65
2021/08/29 00:44:18;;;;;;;10.30;7.70;;;;;;;13.34;87.22;96762.42;116134;1184;69211;-69
2021/08/29 00:46:49;;;;;;;6.50;4.90;;;;;;;13.37;86.14;96754.63;116101;1179;59569;-67
2021/08/29 00:49:20;;;;;;;6.20;4.90;;;;;;;13.41;84.90;96745.52;116110;1184;59674;-68
2021/08/29 00:51:53;;;;;;;6.50;4.60;;;;;;;13.46;84.62;96738.56;116220;1180;71231;-68
2021/08/29 00:54:23;;;;;;;10.10;7.10;;;;;;;13.51;84.41;96742.16;116199;1182;68405;-65
2021/08/29 00:56:53;;;;;;;6.40;4.00;;;;;;;13.53;84.67;96736.49;116174;1181;68225;-64
2021/08/29 00:59:24;;;;;;;;;;;;;;;13.56;83.07;96731.30;116088;1181;59564;-65
2021/08/29 01:02:09;;;;;;;7.80;5.80;;;;;;;13.59;82.93;96734.89;116220;1178;59483;-67
2021/08/29 01:04:51;;;;;;;9.70;7.60;;;;;;;13.59;83.38;96734.52;116028;1180;70788;-66
2021/08/29 01:07:24;;;;;;;9.10;5.50;;;;;;;13.59;83.20;96733.12;116098;1182;69110;-66
2021/08/29 01:10:04;;;;;;;10.90;9.10;;;;;;;13.56;84.43;96739.33;116062;1182;69197;-65
2021/08/29 01:12:58;;;;;;;11.30;8.00;;;;;;;13.48;86.03;96751.28;116162;1181;59529;-66
2021/08/29 01:15:32;;;;;;;12.80;9.80;;;;;;;13.41;86.78;96749.88;116211;1182;59501;-68
2021/08/29 01:18:02;;;;;;;12.10;9.00;;;;;;;13.32;87.44;96747.46;116221;1182;71342;-69
2021/08/29 01:20:51;;;;;;;10.30;8.20;;;;;;;13.27;86.92;96741.93;116141;1182;68932;-65
2021/08/29 01:23:24;;;;;;;9.80;6.80;;;;;;;13.25;86.96;96736.98;116201;1182;69372;-69
2021/08/29 01:25:59;;;;;;;7.00;5.40;;;;;;;13.29;86.01;96731.81;116065;1178;59552;-64
2021/08/29 01:28:56;;;;;;;7.30;4.90;;;;;;;13.33;85.13;96727.73;116152;1179;59546;-68
2021/08/29 01:31:29;;;;;;;10.00;6.40;;;;;;;13.38;84.98;96724.31;116330;1182;71188;-66
2021/08/29 01:34:03;;;;;;;7.70;5.10;;;;;;;13.41;84.85;96721.86;116251;1180;69130;-69
2021/08/29 01:36:37;;;;;;;8.50;5.40;;;;;;;13.46;84.02;96716.84;116287;1182;69215;-66
2021/08/29 01:39:12;;;;;;;7.60;5.80;;;;;;;13.49;83.67;96709.88;116324;1178;59546;-68
2021/08/29 01:41:45;;;;;;;11.90;8.60;;;;;;;13.53;85.01;96711.49;116283;1177;59601;-69
2021/08/29 01:44:17;;;;;;;8.10;6.30;;;;;;;13.52;85.02;96709.42;116321;1179;71166;-65
2021/08/29 01:46:47;;;;;;;7.60;6.00;;;;;;;13.55;84.05;96708.85;116345;1179;68582;-66
2021/08/29 01:49:18;;;;;;;7.20;5.50;;;;;;;13.54;83.67;96709.10;116087;1182;68405;-65
2021/08/29 01:51:49;;;;;;;8.40;6.10;;;;;;;13.54;84.56;96705.92;116155;1182;59578;-68
2021/08/29 01:54:29;;;;;;;9.30;5.80;;;;;;;13.55;83.63;96704.13;116327;1178;59553;-69
2021/08/29 01:57:17;;;;;;;5.50;4.20;;;;;;;13.57;83.09;96705.69;116283;1178;70673;-65
2021/08/29 01:59:53;;;;;;;8.60;6.30;;;;;;;13.59;82.79;96711.40;116193;1182;69181;-65
2021/08/29 02:02:23;;;;;;;8.80;6.40;;;;;;;13.61;82.70;96702.48;116189;1182;68152;-67
2021/08/29 02:04:54;;;;;;;7.30;5.70;;;;;;;13.60;83.49;96694.15;116103;1181;59522;-66
2021/08/29 02:07:36;;;;;;;8.20;6.40;;;;;;;13.60;83.26;96688.88;116192;1178;59557;-67
2021/08/29 02:10:34;;;;;;;9.20;7.60;;;;;;;13.62;84.02;96689.38;116275;1182;70538;-65
2021/08/29 02:13:27;;;;;;;11.60;8.50;;;;;;;13.63;83.76;96685.98;116276;1180;68425;-67
2021/08/29 02:16:06;;;;;;;7.30;5.30;;;;;;;13.64;84.36;96683.44;116102;1182;68682;-66
2021/08/29 02:18:37;;;;;;;8.30;6.00;;;;;;;13.65;84.15;96679.30;116147;1179;59542;-68
2021/08/29 02:21:08;;;;;;;8.00;6.40;;;;;;;13.66;83.92;96682.36;116073;1184;59610;-65
2021/08/29 02:23:40;;;;;;;9.00;6.70;;;;;;;13.67;84.03;96681.71;116095;1182;70586;-66
2021/08/29 02:26:12;;;;;;;8.30;5.50;;;;;;;13.68;84.75;96678.48;116228;1182;68463;-66
2021/08/29 02:28:44;;;;;;;13.30;8.70;;;;;;;13.69;84.48;96668.77;116082;1182;69131;-69
2021/08/29 02:31:19;;;;;;;10.10;7.80;;;;;;;13.69;84.88;96667.35;116132;1181;59527;-66
2021/08/29 02:33:50;;;;;;;6.90;4.80;;;;;;;13.69;84.41;96665.06;116213;1180;59572;-64
2021/08/29 02:36:20;;;;;;;6.20;4.70;;;;;;;13.71;83.94;96668.27;116324;1182;70533;-68
2021/08/29 02:38:53;;;;;;;7.70;5.30;;;;;;;13.71;83.25;96672.20;116190;1182;68954;-65
2021/08/29 02:41:24;;;;;;;5.20;4.20;;;;;;;13.72;82.87;96678.83;116172;1182;68247;-68
2021/08/29 02:43:57;;;;;;;6.10;4.40;;;;;;;13.71;83.23;96675.55;115981;1183;59554;-67
2021/08/29 02:46:27;;;;;;;9.90;7.80;;;;;;;13.71;83.13;96674.66;116331;1182;59543;-67
2021/08/29 02:48:58;;;;;;;8.90;7.40;;;;;;;13.71;84.83;96669.93;116127;1183;71306;-70
2021/08/29 02:51:29;;;;;;;9.00;6.10;;;;;;;13.71;85.19;96665.59;116162;1182;69199;-70
2021/08/29 02:54:00;;;;;;;8.00;6.00;;;;;;;13.71;84.24;96663.83;116019;1183;68421;-67
2021/08/29 02:56:32;;;;;;;9.50;7.40;;;;;;;13.72;84.52;96661.98;116110;1181;59554;-68
2021/08/29 02:59:03;;;;;;;8.90;6.40;;;;;;;13.72;85.77;96660.20;116093;1181;59480;-66
2021/08/29 03:01:38;;;;;;;10.50;6.90;;;;;;;13.73;85.49;96658.02;116280;1181;71347;-65
2021/08/29 03:04:41;;;;;;;6.80;5.20;;;;;;;13.75;84.46;96657.33;116238;1183;69195;-68
2021/08/29 03:07:10;;;;;;;7.40;6.40;;;;;;;13.75;84.85;96657.63;116249;1182;69233;-66
2021/08/29 03:09:41;;;;;;;10.20;8.70;;;;;;;13.75;84.97;96641.67;116133;1183;59550;-69
2021/08/29 03:12:11;;;;;;;;;;;;;;;13.76;84.54;96637.61;116305;1178;59549;-65
2021/08/29 03:14:59;;;;;;;10.50;7.50;;;;;;;13.76;84.77;96634.27;116460;1181;70539;-67
2021/08/29 03:17:29;;;;;;;6.30;4.80;;;;;;;13.74;84.66;96634.29;116127;1182;69242;-67
2021/08/29 03:20:09;;;;;;;9.10;6.00;;;;;;;13.75;83.83;96630.19;116121;1179;69128;-69
2021/08/29 03:22:51;;;;;;;6.60;5.50;;;;;;;13.75;84.94;96625.25;116169;1182;59527;-71
2021/08/29 03:25:20;;;;;;;;;;;;;;;13.73;85.88;96620.72;116224;1178;59504;-66
2021/08/29 03:27:52;;;;;;;9.30;6.50;;;;;;;13.69;86.70;96617.08;116197;1181;70674;-67
2021/08/29 03:30:23;;;;;;;6.20;4.80;;;;;;;13.73;85.07;96613.23;116087;1178;68522;-66
2021/08/29 03:32:54;;;;;;;10.80;8.60;;;;;;;13.71;85.40;96619.15;116098;1183;68540;-68
2021/08/29 03:35:33;;;;;;;7.90;6.30;;;;;;;13.66;85.79;96614.58;116245;1178;59884;-66
2021/08/29 03:38:06;;;;;;;10.60;7.20;;;;;;;13.64;85.15;96608.49;116222;1181;59549;-68
2021/08/29 03:40:38;;;;;;;7.60;5.50;;;;;;;13.64;84.65;96611.80;116312;1180;70387;-65
2021/08/29 03:43:09;;;;;;;7.20;5.20;;;;;;;13.65;84.11;96621.52;116229;1181;68348;-68
2021/08/29 03:45:38;;;;;;;;;;;;;;;13.66;83.94;96626.52;116148;1182;68318;-68
2021/08/29 03:48:11;;;;;;;12.90;9.00;;;;;;;13.66;84.75;96635.77;116206;1181;59532;-69
2021/08/29 03:50:44;;;;;;;;;;;;;;;13.50;87.08;96645.27;116228;1179;59546;-66
2021/08/29 03:53:16;;;;;;;8.20;6.30;;;;;;;13.47;86.99;96650.80;116064;1182;70449;-66
2021/08/29 03:55:50;;;;;;;10.60;6.60;;;;;;;13.46;86.63;96654.88;116187;1181;68433;-69
2021/08/29 03:58:20;;;;;;;11.00;7.30;;;;;;;13.46;86.77;96656.28;116107;1182;68424;-68
2021/08/29 04:00:51;;;;;;;8.20;5.90;;;;;;;13.49;85.89;96658.31;116127;1183;59540;-66
2021/08/29 04:03:23;;;;;;;8.70;6.00;;;;;;;13.52;85.17;96661.30;116127;1182;59540;-66
2021/08/29 04:06:19;;;;;;;9.90;6.70;;;;;;;13.55;85.08;96665.70;116183;1181;70526;-67
2021/08/29 04:08:54;;;;;;;8.00;5.90;;;;;;;13.60;85.29;96671.60;116103;1183;68479;-67
2021/08/29 04:11:29;;;;;;;7.90;6.20;;;;;;;13.64;85.08;96668.41;116126;1181;69259;-67
2021/08/29 04:14:00;;;;;;;11.00;8.30;;;;;;;13.68;84.73;96667.95;116204;1181;59450;-65
2021/08/29 04:16:34;;;;;;;9.90;6.90;;;;;;;13.69;85.08;96676.63;116101;1181;59559;-66
2021/08/29 04:19:26;;;;;;;7.60;6.20;;;;;;;13.70;86.34;96677.61;116150;1178;71392;-70
2021/08/29 04:21:56;;;;;;;9.80;7.40;;;;;;;13.70;86.06;96687.75;116095;1183;69158;-65
2021/08/29 04:24:27;;;;;;;9.30;7.10;;;;;;;13.69;86.44;96697.60;116190;1182;67441;-66
2021/08/29 04:26:57;;;;;;;9.10;6.70;;;;;;;13.71;86.03;96700.60;116136;1182;59546;-65
2021/08/29 04:29:27;;;;;;;10.10;7.30;;;;;;;13.75;85.19;96699.83;116276;1181;59593;-67
2021/08/29 04:31:57;;;;;;;;;;;;;;;13.80;84.91;96706.21;116361;1182;70950;-66
2021/08/29 04:34:26;;;;;;;;;;;;;;;13.81;84.69;96710.84;116317;1181;69184;-69
2021/08/29 04:37:06;;;;;;;7.80;6.00;;;;;;;13.83;84.52;96714.51;116288;1181;68471;-65
2021/08/29 04:39:41;;;;;;;9.20;7.00;;;;;;;13.85;84.42;96723.30;116297;1181;59488;-67
2021/08/29 04:42:10;;;;;;;;;;;;;;;13.83;84.19;96719.44;116216;1181;59561;-67
2021/08/29 04:44:40;;;;;;;9.30;6.30;;;;;;;13.82;83.97;96720.04;116108;1183;72156;-68
2021/08/29 04:47:10;;;;;;;10.60;6.30;;;;;;;13.82;84.06;96717.40;116238;1182;68544;-65
2021/08/29 04:49:44;;;;;;;9.70;6.20;;;;;;;13.81;83.70;96722.98;116131;1183;68487;-68
2021/08/29 04:52:20;;;;;;;10.90;7.00;;;;;;;13.79;83.47;96722.85;116177;1181;59540;-68
2021/08/29 04:54:51;;;;;;;10.90;7.00;;;;;;;13.73;83.20;96720.00;116256;1180;59538;-67
2021/08/29 04:57:24;;;;;;;8.30;6.90;;;;;;;13.71;83.08;96719.31;116227;1182;71456;-68
2021/08/29 04:59:54;;;;;;;8.30;7.10;;;;;;;13.66;83.18;96717.91;116145;1178;68738;-69
2021/08/29 05:02:24;;;;;;;7.90;6.20;;;;;;;13.63;83.47;96719.96;116134;1182;69235;-65
2021/08/29 05:04:53;;;;;;;8.80;6.20;;;;;;;13.60;83.53;96724.58;116212;1182;59923;-68
2021/08/29 05:07:23;;;;;;;9.40;6.70;;;;;;;13.57;83.54;96728.60;116164;1182;59520;-67
2021/08/29 05:09:53;;;;;;;7.30;5.80;;;;;;;13.53;83.61;96737.52;116220;1182;71156;-65
2021/08/29 05:12:23;;;;;;;7.90;5.50;;;;;;;13.51;83.65;96742.79;116120;1182;68965;-65
2021/08/29 05:14:53;;;;;;;9.00;6.80;;;;;;;13.53;83.61;96743.33;116225;1182;68290;-68
2021/08/29 05:17:22;;;;;;;9.10;6.50;;;;;;;13.52;83.78;96748.54;116132;1178;59539;-66
2021/08/29 05:19:52;;;;;;;8.60;6.80;;;;;;;13.49;83.78;96758.92;116168;1180;59570;-66
2021/08/29 05:22:41;;;;;;;8.90;7.00;;;;;;;13.48;83.89;96772.15;116363;1181;71877;-68
2021/08/29 05:25:29;;;;;;;8.30;6.30;;;;;;;13.48;84.01;96785.58;116386;1182;69133;-69
2021/08/29 05:27:58;;;;;;;8.70;6.60;;;;;;;13.47;84.00;96797.81;116565;1178;68952;-66
2021/08/29 05:30:29;;;;;;;7.00;5.80;;;;;;;13.45;84.07;96806.73;116551;1181;59530;-67
2021/08/29 05:32:58;;;;;;;9.00;6.20;;;;;;;13.41;84.11;96804.83;116363;1181;59497;-65
2021/08/29 05:35:27;;;;;;;5.60;3.80;;;;;;;13.38;84.27;96797.56;116153;1182;70351;-68
2021/08/29 05:37:59;;;;;;;5.90;5.20;;;;;;;13.37;84.21;96785.77;116283;1182;69209;-67
2021/08/29 05:40:47;;;;;;;5.30;4.00;;;;;;;13.37;84.20;96783.41;116430;1181;69187;-66
2021/08/29 05:43:53;;;;;;;6.70;5.20;;;;;;;13.37;84.31;96782.29;116191;1184;59578;-67
2021/08/29 05:46:28;;;;;;;5.30;4.70;;;;;;;13.35;84.80;96776.84;116326;1181;59510;-66
2021/08/29 05:48:58;;;;;;;6.30;5.00;;;;;;;13.35;85.03;96776.02;116245;1181;71851;-68
2021/08/29 05:51:29;;;;;;;6.30;4.40;;;;;;;13.32;85.43;96771.55;116451;1178;69173;-65
2021/08/29 05:53:58;;;;;;;6.00;4.60;;;;;;;13.33;85.23;96769.77;116581;1177;69246;-66
2021/08/29 05:56:28;;;;;;;6.30;4.50;;;;;;;13.33;85.32;96761.03;116368;1178;59571;-65
2021/08/29 05:58:57;;;;;;;4.70;3.80;;;;;;;13.33;85.18;96753.32;116449;1180;59523;-67
2021/08/29 06:01:27;;;;;;;5.20;3.90;;;;;;;13.32;85.46;96759.64;116421;1181;71352;-66
2021/08/29 06:03:56;;;;;;;4.80;4.30;;;;;;;13.31;85.51;96759.95;116215;1181;69068;-66
2021/08/29 06:06:46;;;;;;;5.00;4.00;;;;;;;13.30;85.65;96763.41;116392;1178;69224;-65
2021/08/29 06:09:15;;;;;;;4.80;3.30;;;;;;;13.29;85.58;96760.46;116089;1178;59984;-66
2021/08/29 06:11:45;;;;;;;6.30;5.10;;;;;;;13.30;85.76;96759.52;116147;1182;59539;-69
2021/08/29 06:14:14;;;;;;;4.80;3.70;;;;;;;13.24;86.48;96756.33;116137;1182;70682;-68
2021/08/29 06:16:44;;;;;;;5.00;3.50;;;;;;;13.25;86.33;96763.80;116094;1180;67534;-65
2021/08/29 06:19:22;;;;;;;4.60;3.70;;;;;;;13.25;86.17;96778.65;116282;1181;68400;-67
2021/08/29 06:21:51;;;;;;;6.40;5.10;;;;;;;13.23;86.98;96785.86;116299;1181;59515;-67
2021/08/29 06:24:21;;;;;;;6.10;4.20;;;;;;;13.19;87.27;96778.66;116150;1179;59614;-66
2021/08/29 06:27:08;;;;;;;5.90;4.90;;;;;;;13.16;87.63;96772.80;116126;1181;70842;-64
2021/08/29 06:30:05;;;;;;;8.30;4.80;;;;;;;13.17;87.43;96755.22;116346;1179;68443;-68
2021/08/29 06:32:53;;;;;;;4.70;3.90;;;;;;;13.14;87.63;96742.91;116210;1181;68480;-65
2021/08/29 06:35:26;;;;;;;7.00;4.60;;;;;;;13.15;87.56;96734.30;116308;1182;60000;-65
2021/08/29 06:38:04;;;;;;;4.60;3.10;;;;;;;13.18;87.61;96733.59;116207;1178;59533;-66
2021/08/29 06:40:34;;;;;;;5.10;3.90;;;;;;;13.18;87.51;96731.84;116126;1179;71157;-65
2021/08/29 06:43:04;;;;;;;3.70;2.60;;;;;;;13.18;87.79;96734.52;116163;1182;68403;-66
2021/08/29 06:45:59;;;;;;;4.40;3.00;;;;;;;13.20;87.68;96741.45;116319;1181;68400;-66
2021/08/29 06:48:47;;;;;;;3.90;3.30;;;;;;;13.25;87.20;96750.64;116194;1179;59585;-66
2021/08/29 06:51:35;;;;;;;6.00;4.10;;;;;;;13.30;87.24;96760.54;116241;1182;59485;-66
2021/08/29 06:54:04;;;;;;;5.10;4.30;;;;;;;13.32;87.69;96765.66;116172;1181;71379;-68
2021/08/29 06:56:53;;;;;;;3.80;3.00;;;;;;;13.32;87.78;96769.52;116225;1180;68409;-65
2021/08/29 06:59:26;;;;;;;5.30;3.20;;;;;;;13.37;87.25;96776.57;116361;1178;67458;-69
2021/08/29 07:01:57;;;;;;;4.40;3.40;;;;;;;13.41;87.35;96777.73;116166;1182;59550;-65
2021/08/29 07:04:27;;;;;;;;;;;;;;;13.47;87.40;96781.80;116242;1178;59544;-67
2021/08/29 07:07:01;;;;;;;3.00;2.40;;;;;;;13.53;87.51;96784.32;116210;1178;70528;-66
2021/08/29 07:09:49;;;;;;;2.60;2.00;;;;;;;13.60;86.92;96796.23;116210;1181;68421;-65
2021/08/29 07:12:18;;;;;;;3.40;2.00;;;;;;;13.66;86.36;96801.60;116304;1178;69658;-66
2021/08/29 07:15:10;;;;;;;2.20;1.80;;;;;;;13.77;85.73;96808.30;116284;1181;59519;-66
2021/08/29 07:17:39;;;;;;;3.30;2.20;;;;;;;13.82;85.62;96802.73;116266;1182;59611;-67
2021/08/29 07:20:13;;;;;;;3.20;2.50;;;;;;;13.85;85.47;96804.88;116325;1177;69469;-66
2021/08/29 07:22:42;;;;;;;3.20;2.30;;;;;;;13.87;85.45;96802.63;116311;1179;69096;-66
2021/08/29 07:25:29;;;;;;;3.00;2.20;;;;;;;13.90;85.96;96803.65;116292;1178;69320;-68
2021/08/29 07:28:17;;;;;;;2.90;2.10;;;;;;;13.97;85.82;96804.98;116217;1182;59539;-66
2021/08/29 07:31:22;;;;;;;2.90;1.80;;;;;;;14.04;85.28;96804.60;116258;1184;59507;-65
2021/08/29 07:33:55;;;;;;;3.40;2.40;;;;;;;14.11;85.03;96800.42;116159;1182;72056;-66
2021/08/29 07:36:39;;;;;;;4.30;2.40;;;;;;;14.17;85.12;96794.09;116353;1181;68385;-66
2021/08/29 07:39:08;;;;;;;4.20;3.20;;;;;;;14.21;85.42;96788.05;116197;1182;69397;-66
2021/08/29 07:41:38;;;;;;;4.70;2.70;;;;;;;14.27;85.24;96786.07;116221;1179;59544;-66
2021/08/29 07:44:08;;;;;;;6.10;3.90;;;;;;;14.35;85.29;96789.51;116189;1182;59570;-66
2021/08/29 07:46:38;;;;;;;4.80;3.30;;;;;;;14.45;84.80;96787.50;116167;1178;70269;-67
2021/08/29 07:49:07;;;;;;;3.60;2.60;;;;;;;14.55;84.32;96781.66;116282;1181;69407;-65
2021/08/29 07:51:36;;;;;;;3.90;3.00;;;;;;;14.63;83.92;96772.27;116210;1178;69901;-69
2021/08/29 07:54:35;;;;;;;4.00;2.90;;;;;;;14.68;83.67;96762.08;116255;1179;59606;-66
2021/08/29 07:57:22;;;;;;;5.20;3.80;;;;;;;14.72;83.97;96753.91;116327;1178;59543;-67
2021/08/29 07:59:52;;;;;;;4.70;3.30;;;;;;;14.74;84.82;96748.53;116288;1182;70189;-69
2021/08/29 08:02:21;;;;;;;5.60;3.30;;;;;;;14.76;84.11;96744.73;116304;1180;68311;-65
2021/08/29 08:05:13;;;;;;;6.60;4.00;;;;;;;14.74;84.14;96736.89;116119;1177;68892;-66
2021/08/29 08:08:09;;;;;;;3.60;2.60;;;;;;;14.73;84.03;96725.75;116291;1182;59567;-66
2021/08/29 08:11:00;;;;;;;3.40;2.80;;;;;;;14.74;84.39;96725.20;116186;1182;59551;-68
2021/08/29 08:13:32;;;;;;;4.10;2.80;;;;;;;14.72;84.67;96725.36;116291;1178;71450;-68
2021/08/29 08:16:01;;;;;;;3.80;2.70;;;;;;;14.76;84.22;96726.05;116306;1180;69090;-66
2021/08/29 08:18:31;;;;;;;3.00;2.50;;;;;;;14.76;83.93;96719.41;116180;1182;69006;-65
2021/08/29 08:21:00;;;;;;;5.90;3.70;;;;;;;14.77;84.13;96717.83;116149;1183;59531;-68
2021/08/29 08:23:48;;;;;;;3.60;3.10;;;;;;;14.82;84.91;96708.44;116188;1182;59492;-66
2021/08/29 08:26:27;;;;;;;5.10;3.20;;;;;;;14.90;84.93;96714.77;116236;1181;71348;-66
2021/08/29 08:29:15;;;;;;;3.50;2.40;;;;;;;15.03;83.58;96723.48;116223;1183;68418;-69
2021/08/29 08:32:14;;;;;;;4.00;2.50;;;;;;;15.10;82.59;96727.73;116255;1182;68419;-65
2021/08/29 08:35:01;;;;;;;3.80;2.00;;;;;;;15.17;82.02;96737.09;116331;1181;59533;-68
2021/08/29 08:37:51;;;;;;;2.60;1.60;;;;;;;15.30;82.19;96741.21;116350;1179;59527;-65
2021/08/29 08:40:40;;;;;;;2.60;1.70;;;;;;;15.49;81.30;96749.69;116310;1182;71379;-66
2021/08/29 08:43:21;;;;;;;2.20;1.70;;;;;;;15.60;80.32;96758.06;116217;1182;69258;-66
2021/08/29 08:46:11;;;;;;;3.10;2.30;;;;;;;15.56;81.02;96754.72;116223;1182;69560;-65
2021/08/29 08:49:02;;;;;;;3.30;2.20;;;;;;;15.51;81.18;96758.59;116242;1183;59952;-68
2021/08/29 08:51:53;;;;;;;3.80;3.00;;;;;;;15.36;81.96;96755.52;116156;1182;59494;-68
2021/08/29 08:54:42;;;;;;;3.90;2.50;;;;;;;15.37;82.08;96748.13;116247;1182;71016;-65
2021/08/29 08:57:34;;;;;;;3.20;1.90;;;;;;;15.37;83.05;96746.48;116325;1181;69155;-65
2021/08/29 09:00:16;;;;;;;3.60;2.10;;;;;;;15.42;82.47;96748.31;116353;1182;68572;-67
2021/08/29 09:03:04;;;;;;;2.20;1.70;;;;;;;15.45;82.55;96750.46;116307;1178;59534;-64
2021/08/29 09:05:47;;;;;;;3.70;2.00;;;;;;;15.64;82.00;96749.84;116330;1182;59543;-69
2021/08/29 09:08:37;;;;;;;2.00;1.50;;;;;;;15.91;81.53;96747.20;116331;1181;71358;-65
2021/08/29 09:11:06;;;;;;;2.00;1.40;;;;;;;16.14;80.61;96753.28;116294;1182;68727;-66
2021/08/29 09:13:49;;;;;;;3.10;1.80;;;;;;;16.22;78.74;96756.92;116093;1182;68957;-67
2021/08/29 09:16:20;;;;;;;3.60;1.90;;;;;;;16.23;77.79;96760.23;116142;1180;59552;-69
2021/08/29 09:19:01;;;;;;;2.40;1.70;;;;;;;16.28;77.77;96759.84;116301;1179;59651;-69
2021/08/29 09:21:32;;;;;;;1.80;1.40;;;;;;;16.36;77.24;96759.94;116148;1183;71466;-70
2021/08/29 09:24:12;;;;;;;2.00;1.60;;;;;;;16.44;77.23;96759.78;116264;1182;69019;-65
2021/08/29 09:27:11;;;;;;;3.30;1.90;;;;;;;16.50;77.07;96762.13;116177;1182;69738;-65
2021/08/29 09:29:45;;;;;;;2.40;1.70;;;;;;;16.37;75.70;96764.85;116267;1178;59530;-67
2021/08/29 09:32:20;;;;;;;5.00;2.70;;;;;;;16.28;77.92;96768.44;116160;1182;59543;-65
2021/08/29 09:35:03;;;;;;;3.40;2.10;;;;;;;16.07;77.67;96771.72;116303;1181;70538;-65
2021/08/29 09:37:52;;;;;;;3.20;2.10;;;;;;;15.97;78.07;96770.51;116297;1183;69075;-66
2021/08/29 09:40:42;;;;;;;3.90;2.70;;;;;;;16.07;77.72;96777.67;116258;1182;69326;-65
2021/08/29 09:43:35;;;;;;;3.30;2.70;;;;;;;16.18;78.98;96781.23;116323;1182;59611;-69
2021/08/29 09:46:08;;;;;;;4.50;2.50;;;;;;;16.21;77.44;96778.48;116409;1178;59492;-68
2021/08/29 09:49:09;;;;;;;3.20;1.80;;;;;;;16.23;77.45;96773.56;116169;1180;71212;-65
2021/08/29 09:51:55;;;;;;;3.30;2.30;;;;;;;16.58;77.19;96762.48;116360;1177;68531;-66
2021/08/29 09:54:42;;;;;;;3.80;2.20;;;;;;;16.89;75.63;96759.16;116188;1182;69797;-66
2021/08/29 09:57:46;;;;;;;4.10;3.00;;;;;;;16.99;73.56;96761.02;116088;1184;59633;-68
2021/08/29 10:00:38;;;;;;;3.00;2.10;;;;;;;17.03;72.60;96762.89;116302;1182;59516;-68
2021/08/29 10:03:07;;;;;;;;;;;;;;;17.09;72.35;96762.95;116339;1178;71467;-66
2021/08/29 10:06:14;;;;;;;3.20;2.10;;;;;;;17.06;73.24;96762.59;116336;1182;69095;-67
2021/08/29 10:08:46;;;;;;;3.30;2.40;;;;;;;17.25;72.91;96760.30;116300;1182;68497;-65
2021/08/29 10:11:31;;;;;;;3.40;2.40;;;;;;;17.30;72.49;96764.28;116221;1183;59526;-66
2021/08/29 10:14:00;;;;;;;4.70;2.40;;;;;;;17.54;71.87;96764.45;116240;1178;59562;-68
2021/08/29 10:16:30;;;;;;;3.20;2.30;;;;;;;17.77;71.47;96764.41;116230;1179;70207;-66
2021/08/29 10:19:19;;;;;;;3.80;2.70;;;;;;;18.03;69.88;96762.02;116197;1182;69112;-68
2021/08/29 10:22:08;;;;;;;3.80;2.50;;;;;;;17.96;69.23;96764.00;116274;1182;68468;-67
2021/08/29 10:24:39;;;;;;;3.10;2.10;;;;;;;18.20;68.25;96764.86;116215;1180;59541;-66
2021/08/29 10:27:14;;;;;;;3.10;2.20;;;;;;;18.35;67.47;96764.86;116290;1182;59545;-66
2021/08/29 10:30:12;;;;;;;2.90;1.70;;;;;;;18.67;68.50;96762.81;116129;1183;70973;-67
2021/08/29 10:33:02;;;;;;;;;;;;;;;18.76;66.14;96760.01;116319;1178;68338;-66
2021/08/29 10:35:47;;;;;;;4.10;2.50;;;;;;;18.84;66.15;96766.47;116262;1182;69322;-66
2021/08/29 10:38:38;;;;;;;2.30;1.50;;;;;;;18.96;64.33;96762.38;116274;1178;59549;-66
2021/08/29 10:41:34;;;;;;;2.10;1.50;;;;;;;19.26;62.83;96763.94;116161;1181;59520;-67
2021/08/29 10:44:13;;;;;;;2.30;1.50;;;;;;;19.64;63.00;96764.52;116354;1182;70678;-66
2021/08/29 10:47:02;;;;;;;2.80;1.80;;;;;;;20.19;62.24;96756.70;116272;1178;68648;-70
2021/08/29 10:50:15;;;;;;;3.10;1.90;;;;;;;20.64;58.57;96756.33;116142;1183;69043;-66
2021/08/29 10:52:45;;;;;;;2.10;1.70;;;;;;;21.03;58.73;96755.34;116386;1179;59546;-72
2021/08/29 10:55:18;;;;;;;2.80;1.30;;;;;;;21.07;58.12;96757.95;116262;1182;59537;-67
2021/08/29 10:57:49;;;;;;;3.70;1.70;;;;;;;21.38;56.42;96760.30;116367;1179;71446;-68
2021/08/29 11:00:28;;;;;;;2.40;1.30;;;;;;;21.87;56.06;96756.16;116241;1183;69225;-66
2021/08/29 11:03:27;;;;;;;1.20;0.90;;;;;;;22.84;57.16;96749.61;116250;1181;68563;-69
2021/08/29 11:06:44;;;;;;;2.10;1.00;;;;;;;23.59;52.49;96746.22;116177;1182;59596;-68
2021/08/29 11:09:32;;;;;;;2.00;1.10;;;;;;;23.78;54.05;96747.59;116336;1182;59533;-65
2021/08/29 11:12:26;;;;;;;1.20;1.00;;;;;;;24.18;52.93;96748.64;116200;1182;71384;-66
2021/08/29 11:15:02;;;;;;;;;;;;;;;24.43;53.07;96746.42;116342;1179;69185;-73
2021/08/29 11:17:38;;;;;;;1.00;0.70;;;;;;;24.34;49.08;96745.73;116275;1182;68483;-73
2021/08/29 11:20:13;;;;;;;1.60;0.80;;;;;;;24.15;50.69;96744.17;116280;1178;59545;-66
2021/08/29 11:23:42;;;;;;;1.40;1.10;;;;;;;23.86;50.97;96747.23;116051;1183;59597;-67
2021/08/29 11:26:40;;;;;;;1.20;1.00;;;;;;;23.52;48.81;96745.62;116287;1182;71144;-66
2021/08/29 11:29:42;;;;;;;2.10;0.80;;;;;;;23.29;50.85;96740.70;116329;1181;69418;-67
2021/08/29 11:32:36;;;;;;;2.30;1.30;;;;;;;22.81;50.94;96743.52;116262;1180;69259;-71
2021/08/29 11:35:19;;;;;;;1.50;1.10;;;;;;;22.07;52.53;96748.88;116247;1182;59549;-70
2021/08/29 11:38:01;;;;;;;1.50;1.00;;;;;;;21.06;55.09;96747.38;116241;1179;59566;-70
2021/08/29 11:41:01;;;;;;;2.10;1.00;;;;;;;20.95;55.56;96745.84;116265;1181;71370;-67
2021/08/29 11:43:33;;;;;;;1.80;1.30;;;;;;;21.30;56.38;96741.40;116258;1184;69263;-66
2021/08/29 11:46:23;;;;;;;2.20;1.10;;;;;;;21.62;55.53;96743.80;116240;1183;69212;-66
2021/08/29 11:49:07;;;;;;;2.10;1.30;;;;;;;21.73;54.87;96741.84;116306;1178;59546;-67
2021/08/29 11:51:42;;;;;;;2.00;1.50;;;;;;;20.74;55.97;96738.77;116327;1181;59498;-66
2021/08/29 11:54:19;;;;;;;2.40;1.30;;;;;;;20.92;56.26;96732.81;116311;1182;70782;-68
2021/08/29 11:57:16;;;;;;;2.00;1.20;;;;;;;21.20;56.37;96727.77;116360;1182;69058;-69
2021/08/29 11:59:47;;;;;;;1.70;1.00;;;;;;;21.45;56.42;96727.85;116234;1183;68494;-66
2021/08/29 12:02:41;;;;;;;2.20;1.40;;;;;;;21.57;55.47;96730.89;116327;1182;59883;-65
2021/08/29 12:05:16;;;;;;;3.50;2.40;;;;;;;21.63;55.90;96727.36;116279;1180;59526;-71
2021/08/29 12:08:00;;;;;;;2.50;1.90;;;;;;;21.39;55.09;96728.54;116259;1182;71633;-66
2021/08/29 12:10:51;;;;;;;2.60;2.00;;;;;;;21.42;55.37;96730.58;116243;1178;68474;-66
2021/08/29 12:13:38;;;;;;;1.80;1.20;;;;;;;21.45;55.73;96728.13;116328;1181;67532;-67
2021/08/29 12:16:28;;;;;;;2.40;1.30;;;;;;;21.83;55.52;96723.97;116274;1182;59489;-65
2021/08/29 12:19:13;;;;;;;1.90;1.20;;;;;;;22.23;55.06;96726.93;116313;1181;59476;-68
2021/08/29 12:22:19;;;;;;;2.50;1.50;;;;;;;22.89;53.39;96726.38;116274;1182;70787;-67